createdAt,value
2019-05-05T00:00:57.108Z,40.40
2019-05-05T00:03:47.773Z,42.60
2019-05-05T00:06:20.528Z,41.20
2019-05-05T00:08:54.590Z,42.00
2019-05-05T00:11:39.650Z,43.40
2019-05-05T00:14:35.076Z,42.80
2019-05-05T00:17:15.631Z,46.80
2019-05-05T00:19:47.511Z,43.00
2019-05-05T00:22:19.787Z,45.20
2019-05-05T00:24:54.608Z,45.00
2019-05-05T00:27:26.780Z,46.40
2019-05-05T00:29:58.479Z,48.00
2019-05-05T00:32:30.308Z,47.00
2019-05-05T00:35:04.333Z,47.40
2019-05-05T00:37:36.522Z,45.60
2019-05-05T00:40:09.502Z,49.20
2019-05-05T00:42:41.934Z,48.20
2019-05-05T00:45:14.807Z,47.40
2019-05-05T00:47:54.937Z,49.20
2019-05-05T00:50:27.277Z,49.20
2019-05-05T00:52:59.186Z,49.00
2019-05-05T00:55:31.508Z,52.60
2019-05-05T00:58:05.127Z,54.40
2019-05-05T01:00:51.442Z,56.40
2019-05-05T01:03:25.029Z,55.20
2019-05-05T01:06:11.948Z,58.20
2019-05-05T01:08:44.664Z,66.40
2019-05-05T01:11:17.833Z,66.00
2019-05-05T01:13:50.034Z,67.20
2019-05-05T01:16:21.867Z,65.40
2019-05-05T01:18:55.394Z,66.40
2019-05-05T01:21:27.640Z,59.20
2019-05-05T01:23:59.318Z,61.40
2019-05-05T01:26:31.292Z,69.20
2019-05-05T01:29:05.195Z,66.20
2019-05-05T01:31:37.618Z,71.40
2019-05-05T01:34:44.428Z,69.40
2019-05-05T01:37:25.449Z,63.60
2019-05-05T01:40:04.956Z,65.60
2019-05-05T01:42:37.188Z,64.80
2019-05-05T01:45:09.229Z,67.60
2019-05-05T01:47:41.349Z,57.80
2019-05-05T01:50:18.244Z,61.60
2019-05-05T01:52:47.108Z,53.60
2019-05-05T01:55:18.823Z,63.20
2019-05-05T01:57:50.832Z,53.80
2019-05-05T02:00:25.364Z,51.80
2019-05-05T02:02:58.706Z,54.80
2019-05-05T02:05:30.880Z,55.60
2019-05-05T02:08:04.993Z,52.20
2019-05-05T02:10:38.347Z,54.00
2019-05-05T02:13:10.630Z,51.80
2019-05-05T02:15:44.486Z,59.20
2019-05-05T02:18:16.471Z,62.20
2019-05-05T02:21:02.174Z,69.00
2019-05-05T02:23:35.109Z,75.40
2019-05-05T02:26:07.895Z,69.20
2019-05-05T02:29:17.220Z,58.40
2019-05-05T02:32:06.899Z,55.60
2019-05-05T02:34:45.679Z,52.00
2019-05-05T02:37:17.303Z,52.00
2019-05-05T02:39:57.698Z,51.20
2019-05-05T02:42:26.418Z,52.00
2019-05-05T02:45:05.515Z,48.80
2019-05-05T02:47:57.071Z,52.20
2019-05-05T02:51:02.306Z,53.00
2019-05-05T02:53:36.830Z,51.00
2019-05-05T02:56:15.450Z,47.40
2019-05-05T02:58:48.980Z,46.00
2019-05-05T03:01:35.500Z,47.00
2019-05-05T03:04:08.813Z,48.60
2019-05-05T03:06:44.895Z,47.00
2019-05-05T03:09:19.935Z,45.60
2019-05-05T03:11:54.857Z,42.40
2019-05-05T03:14:30.215Z,45.40
2019-05-05T03:17:04.630Z,42.80
2019-05-05T03:19:36.806Z,44.40
2019-05-05T03:22:08.881Z,47.00
2019-05-05T03:24:41.098Z,45.20
2019-05-05T03:27:14.293Z,42.20
2019-05-05T03:29:47.554Z,46.00
2019-05-05T03:32:19.845Z,44.00
2019-05-05T03:34:53.689Z,44.80
2019-05-05T03:37:25.607Z,43.40
2019-05-05T03:40:04.323Z,44.00
2019-05-05T03:42:44.326Z,44.00
2019-05-05T03:45:30.892Z,42.40
2019-05-05T03:48:04.633Z,35.00
2019-05-05T03:50:37.716Z,38.60
2019-05-05T03:53:09.927Z,38.40
2019-05-05T03:55:43.916Z,36.20
2019-05-05T03:58:16.088Z,37.80
2019-05-05T04:02:01.449Z,36.00
2019-05-05T04:04:38.015Z,33.80
2019-05-05T04:07:10.235Z,40.80
2019-05-05T04:09:43.769Z,37.40
2019-05-05T04:12:15.628Z,35.80
2019-05-05T04:14:48.165Z,34.20
2019-05-05T04:17:37.590Z,35.20
2019-05-05T04:20:28.705Z,37.60
2019-05-05T04:23:00.831Z,28.60
2019-05-05T04:25:34.766Z,28.00
2019-05-05T04:28:06.806Z,27.40
2019-05-05T04:30:38.297Z,27.60
2019-05-05T04:33:09.865Z,27.40
2019-05-05T04:35:41.760Z,27.00
2019-05-05T04:38:13.873Z,24.20
2019-05-05T04:40:45.921Z,24.80
2019-05-05T04:43:17.555Z,21.40
2019-05-05T04:45:49.189Z,19.60
2019-05-05T04:48:28.555Z,20.80
2019-05-05T04:51:06.425Z,29.60
2019-05-05T04:53:57.058Z,24.20
2019-05-05T04:56:30.075Z,22.80
2019-05-05T04:59:04.003Z,21.80
2019-05-05T05:01:36.337Z,19.20
2019-05-05T05:04:24.190Z,22.00
2019-05-05T05:06:57.667Z,20.80
2019-05-05T05:09:30.865Z,18.20
2019-05-05T05:12:04.063Z,23.00
2019-05-05T05:14:35.637Z,19.80
2019-05-05T05:17:13.966Z,23.20
2019-05-05T05:19:45.648Z,21.40
2019-05-05T05:22:17.351Z,21.20
2019-05-05T05:24:48.968Z,24.00
2019-05-05T05:27:21.018Z,24.20
2019-05-05T05:29:54.374Z,44.40
2019-05-05T05:32:27.739Z,22.40
2019-05-05T05:34:59.737Z,21.40
2019-05-05T05:37:34.151Z,21.00
2019-05-05T05:40:14.491Z,19.80
2019-05-05T05:42:46.396Z,21.60
2019-05-05T05:45:35.922Z,21.80
2019-05-05T05:48:25.597Z,20.60
2019-05-05T05:51:00.764Z,17.80
2019-05-05T05:53:32.437Z,18.80
2019-05-05T05:56:04.501Z,15.20
2019-05-05T05:58:36.164Z,16.60
2019-05-05T06:01:07.980Z,19.20
2019-05-05T06:03:39.442Z,18.00
2019-05-05T06:06:11.246Z,15.20
2019-05-05T06:08:43.974Z,19.60
2019-05-05T06:11:16.772Z,16.00
2019-05-05T06:13:48.448Z,20.00
2019-05-05T06:16:20.279Z,19.00
2019-05-05T06:18:54.138Z,15.20
2019-05-05T06:21:29.209Z,12.80
2019-05-05T06:24:01.672Z,13.80
2019-05-05T06:26:34.268Z,12.60
2019-05-05T06:29:06.331Z,14.00
2019-05-05T06:31:37.854Z,14.40
2019-05-05T06:34:09.784Z,13.40
2019-05-05T06:36:41.439Z,12.60
2019-05-05T06:39:13.782Z,12.40
2019-05-05T06:42:00.551Z,11.60
2019-05-05T06:44:45.864Z,9.20
2019-05-05T06:47:20.939Z,9.20
2019-05-05T06:49:54.194Z,7.40
2019-05-05T06:52:40.925Z,8.00
2019-05-05T06:55:00.386Z,11.80
2019-05-05T06:57:34.296Z,11.80
2019-05-05T07:00:07.531Z,13.20
2019-05-05T07:02:39.229Z,8.80
2019-05-05T07:05:11.381Z,7.00
2019-05-05T07:07:43.612Z,10.60
2019-05-05T07:10:15.644Z,9.20
2019-05-05T07:12:47.117Z,6.40
2019-05-05T07:15:18.892Z,7.60
2019-05-05T07:17:50.482Z,7.00
2019-05-05T07:20:24.018Z,9.00
2019-05-05T07:23:01.396Z,10.20
2019-05-05T07:25:39.903Z,8.40
2019-05-05T07:28:04.239Z,9.00
2019-05-05T07:30:36.206Z,9.00
2019-05-05T07:33:07.859Z,10.20
2019-05-05T07:36:14.544Z,11.40
2019-05-05T07:38:47.989Z,10.60
2019-05-05T07:41:19.949Z,12.00
2019-05-05T07:43:51.570Z,14.00
2019-05-05T07:46:24.080Z,9.40
2019-05-05T07:48:55.899Z,10.40
2019-05-05T07:51:27.849Z,11.40
2019-05-05T07:53:59.560Z,11.20
2019-05-05T07:56:31.444Z,10.60
2019-05-05T07:59:03.767Z,12.40
2019-05-05T08:01:36.022Z,12.80
2019-05-05T08:04:10.955Z,10.00
2019-05-05T08:06:44.525Z,12.20
2019-05-05T08:09:16.059Z,9.80
2019-05-05T08:11:48.101Z,12.00
2019-05-05T08:14:19.789Z,8.40
2019-05-05T08:17:01.439Z,10.60
2019-05-05T08:19:46.694Z,8.40
2019-05-05T08:22:18.312Z,8.00
2019-05-05T08:25:15.192Z,9.80
2019-05-05T08:28:14.885Z,15.40
2019-05-05T08:30:55.724Z,11.20
2019-05-05T08:33:27.657Z,10.80
2019-05-05T08:35:59.440Z,10.20
2019-05-05T08:38:31.165Z,10.00
2019-05-05T08:41:04.547Z,12.40
2019-05-05T08:43:36.271Z,12.00
2019-05-05T08:46:08.394Z,11.20
2019-05-05T08:48:40.132Z,11.00
2019-05-05T08:51:13.926Z,9.80
2019-05-05T08:53:48.223Z,9.60
2019-05-05T08:56:18.769Z,11.20
2019-05-05T08:58:50.363Z,10.00
2019-05-05T09:01:23.782Z,26.40
2019-05-05T09:03:55.251Z,12.20
2019-05-05T09:06:26.924Z,11.00
2019-05-05T09:08:58.713Z,8.80
2019-05-05T09:11:30.291Z,10.20
2019-05-05T09:14:04.024Z,8.00
2019-05-05T09:16:35.507Z,12.00
2019-05-05T09:19:14.527Z,9.60
2019-05-05T09:21:45.379Z,11.80
2019-05-05T09:24:24.939Z,9.40
2019-05-05T09:27:19.130Z,14.80
2019-05-05T09:29:51.019Z,14.00
2019-05-05T09:32:24.297Z,10.60
2019-05-05T09:35:04.761Z,11.20
2019-05-05T09:37:37.859Z,10.60
2019-05-05T09:40:09.701Z,10.80
2019-05-05T09:42:40.973Z,12.00
2019-05-05T09:45:15.217Z,9.60
2019-05-05T09:47:46.646Z,11.00
2019-05-05T09:50:17.954Z,8.60
2019-05-05T09:52:49.232Z,12.60
2019-05-05T09:55:20.624Z,12.00
2019-05-05T09:57:54.004Z,7.80
2019-05-05T10:00:25.613Z,9.40
2019-05-05T10:02:57.220Z,10.60
2019-05-05T10:05:29.143Z,12.20
2019-05-05T10:08:00.824Z,11.00
2019-05-05T10:10:33.716Z,9.80
2019-05-05T10:13:06.888Z,9.00
2019-05-05T10:15:38.699Z,10.40
2019-05-05T10:18:10.876Z,8.00
2019-05-05T10:20:42.729Z,11.40
2019-05-05T10:23:14.983Z,10.60
2019-05-05T10:25:49.815Z,9.40
2019-05-05T10:28:23.956Z,8.20
2019-05-05T10:30:55.659Z,10.00
2019-05-05T10:33:29.164Z,9.00
2019-05-05T10:36:00.955Z,13.20
2019-05-05T10:38:34.105Z,10.60
2019-05-05T10:41:05.935Z,12.40
2019-05-05T10:43:37.637Z,13.40
2019-05-05T10:46:09.227Z,11.60
2019-05-05T10:48:40.884Z,11.00
2019-05-05T10:51:12.604Z,11.20
2019-05-05T10:53:44.624Z,13.40
2019-05-05T10:56:16.375Z,11.80
2019-05-05T10:58:48.026Z,10.20
2019-05-05T11:01:21.245Z,12.00
2019-05-05T11:03:53.148Z,10.40
2019-05-05T11:06:25.462Z,12.20
2019-05-05T11:08:57.431Z,9.00
2019-05-05T11:11:29.367Z,12.00
2019-05-05T11:14:03.645Z,12.40
2019-05-05T11:16:36.050Z,11.60
2019-05-05T11:19:08.294Z,16.40
2019-05-05T11:21:39.850Z,15.40
2019-05-05T11:24:11.825Z,11.80
2019-05-05T11:26:44.551Z,15.20
2019-05-05T11:29:16.207Z,12.40
2019-05-05T11:31:48.467Z,12.20
2019-05-05T11:34:26.738Z,10.20
2019-05-05T11:37:10.423Z,16.20
2019-05-05T11:39:41.911Z,18.80
2019-05-05T11:42:14.634Z,12.40
2019-05-05T11:44:47.503Z,13.20
2019-05-05T11:47:19.695Z,10.80
2019-05-05T11:49:54.535Z,15.80
2019-05-05T11:52:24.963Z,14.80
2019-05-05T11:55:08.842Z,16.20
2019-05-05T11:57:29.674Z,14.40
2019-05-05T12:00:03.723Z,13.60
2019-05-05T12:02:35.755Z,14.20
2019-05-05T12:05:07.530Z,14.00
2019-05-05T12:07:39.987Z,17.40
2019-05-05T12:10:31.723Z,15.60
2019-05-05T12:13:04.914Z,11.60
2019-05-05T12:15:36.679Z,13.20
2019-05-05T12:18:08.446Z,12.80
2019-05-05T12:20:40.595Z,16.40
2019-05-05T12:23:12.168Z,17.00
2019-05-05T12:25:56.892Z,17.00
2019-05-05T12:28:44.699Z,14.00
2019-05-05T12:31:21.335Z,18.20
2019-05-05T12:33:54.834Z,17.00
2019-05-05T12:36:26.833Z,15.00
2019-05-05T12:38:58.645Z,17.40
2019-05-05T12:41:30.407Z,15.40
2019-05-05T12:44:04.475Z,16.60
2019-05-05T12:46:52.316Z,20.20
2019-05-05T12:49:25.476Z,15.00
2019-05-05T12:51:57.170Z,18.60
2019-05-05T12:54:29.127Z,16.00
2019-05-05T12:57:00.770Z,17.60
2019-05-05T12:59:33.883Z,21.80
2019-05-05T13:02:06.636Z,21.20
2019-05-05T13:04:38.551Z,21.00
2019-05-05T13:07:10.380Z,26.40
2019-05-05T13:09:44.055Z,26.20
2019-05-05T13:12:15.838Z,24.60
2019-05-05T13:14:47.777Z,22.60
2019-05-05T13:17:20.024Z,18.20
2019-05-05T13:20:00.417Z,22.40
2019-05-05T13:22:44.334Z,24.80
2019-05-05T13:26:00.063Z,30.80
2019-05-05T13:28:31.960Z,33.80
2019-05-05T13:31:04.698Z,31.00
2019-05-05T13:33:37.707Z,30.20
2019-05-05T13:36:09.491Z,26.40
2019-05-05T13:38:41.056Z,28.60
2019-05-05T13:41:13.054Z,25.20
2019-05-05T13:43:44.926Z,26.80
2019-05-05T13:46:28.479Z,26.60
2019-05-05T13:49:17.759Z,27.20
2019-05-05T13:51:49.563Z,28.20
2019-05-05T13:54:21.296Z,27.40
2019-05-05T13:56:54.427Z,31.40
2019-05-05T13:59:26.402Z,29.60
2019-05-05T14:01:59.689Z,25.80
2019-05-05T14:04:31.890Z,31.60
2019-05-05T14:07:04.245Z,27.20
2019-05-05T14:09:35.922Z,26.80
2019-05-05T14:12:07.940Z,32.00
2019-05-05T14:14:39.787Z,31.00
2019-05-05T14:17:11.616Z,26.00
2019-05-05T14:19:44.543Z,30.60
2019-05-05T14:22:16.350Z,33.80
2019-05-05T14:24:55.602Z,31.40
2019-05-05T14:27:27.584Z,34.40
2019-05-05T14:30:18.282Z,34.40
2019-05-05T14:32:50.627Z,34.80
2019-05-05T14:35:47.253Z,34.20
2019-05-05T14:38:27.068Z,35.20
2019-05-05T14:40:58.686Z,33.60
2019-05-05T14:43:31.345Z,38.40
2019-05-05T14:46:03.658Z,39.00
2019-05-05T14:48:37.124Z,37.80
2019-05-05T14:51:08.462Z,41.60
2019-05-05T14:53:40.021Z,40.80
2019-05-05T14:56:13.441Z,41.60
2019-05-05T14:58:45.252Z,40.20
2019-05-05T15:01:16.960Z,43.80
2019-05-05T15:03:48.809Z,40.80
2019-05-05T15:06:39.146Z,39.80
2019-05-05T15:09:30.055Z,44.00
2019-05-05T15:12:19.000Z,40.00
2019-05-05T15:14:50.860Z,43.00
2019-05-05T15:17:24.489Z,42.20
2019-05-05T15:19:56.398Z,44.20
2019-05-05T15:22:28.544Z,42.00
2019-05-05T15:25:00.500Z,41.40
2019-05-05T15:27:34.729Z,42.20
2019-05-05T15:30:06.812Z,38.40
2019-05-05T15:32:38.374Z,44.20
2019-05-05T15:35:10.640Z,44.80
2019-05-05T15:37:43.670Z,44.20
2019-05-05T15:40:16.032Z,43.40
2019-05-05T15:42:48.023Z,42.80
2019-05-05T15:45:20.773Z,43.60
2019-05-05T15:47:54.037Z,45.40
2019-05-05T15:50:27.762Z,42.80
2019-05-05T15:52:59.143Z,44.20
2019-05-05T15:55:31.078Z,44.80
2019-05-05T15:58:03.557Z,46.20
2019-05-05T16:00:35.519Z,48.80
2019-05-05T16:03:07.431Z,48.00
2019-05-05T16:05:39.418Z,47.00
2019-05-05T16:08:11.067Z,47.40
2019-05-05T16:10:46.326Z,49.60
2019-05-05T16:13:17.062Z,47.60
2019-05-05T16:16:05.924Z,47.60
2019-05-05T16:19:08.560Z,48.00
2019-05-05T16:21:47.755Z,46.60
2019-05-05T16:24:24.844Z,45.80
2019-05-05T16:26:57.047Z,45.60
2019-05-05T16:29:28.638Z,46.00
2019-05-05T16:32:00.190Z,45.00
2019-05-05T16:34:33.613Z,46.00
2019-05-05T16:37:05.346Z,48.00
2019-05-05T16:39:37.064Z,47.60
2019-05-05T16:42:09.330Z,49.00
2019-05-05T16:44:40.976Z,49.40
2019-05-05T16:47:13.664Z,48.00
2019-05-05T16:49:45.440Z,47.00
2019-05-05T16:52:23.944Z,50.00
2019-05-05T16:55:06.016Z,48.60
2019-05-05T16:57:37.845Z,50.60
2019-05-05T17:00:09.736Z,54.00
2019-05-05T17:02:41.334Z,55.80
2019-05-05T17:05:13.690Z,51.20
2019-05-05T17:07:45.579Z,55.00
2019-05-05T17:10:17.604Z,55.00
2019-05-05T17:12:49.133Z,52.80
2019-05-05T17:15:58.246Z,56.80
2019-05-05T17:18:45.290Z,55.60
2019-05-05T17:21:38.618Z,58.60
2019-05-05T17:24:10.135Z,58.20
2019-05-05T17:26:49.092Z,55.40
2019-05-05T17:29:24.115Z,52.00
2019-05-05T17:32:02.132Z,67.40
2019-05-05T17:34:34.997Z,60.60
2019-05-05T17:37:06.685Z,64.20
2019-05-05T17:39:43.739Z,61.00
2019-05-05T17:42:34.761Z,61.00
2019-05-05T17:45:25.362Z,59.20
2019-05-05T17:48:11.927Z,61.20
2019-05-05T17:50:58.365Z,62.60
2019-05-05T17:53:43.755Z,64.60
2019-05-05T17:56:15.168Z,58.60
2019-05-05T17:58:49.831Z,58.20
2019-05-05T18:01:21.076Z,59.00
2019-05-05T18:03:54.630Z,60.00
2019-05-05T18:06:56.625Z,60.60
2019-05-05T18:10:00.051Z,57.60
2019-05-05T18:13:03.506Z,55.40
2019-05-05T18:15:54.493Z,56.20
2019-05-05T18:18:35.371Z,54.20
2019-05-05T18:21:11.688Z,50.40
2019-05-05T18:23:44.629Z,50.40
2019-05-05T18:26:15.865Z,51.20
2019-05-05T18:28:48.147Z,50.20
2019-05-05T18:31:20.018Z,53.20
2019-05-05T18:33:51.829Z,56.00
2019-05-05T18:36:25.148Z,55.60
2019-05-05T18:38:56.518Z,52.00
2019-05-05T18:41:36.599Z,51.80
2019-05-05T18:44:46.732Z,53.00
2019-05-05T18:47:33.904Z,51.20
2019-05-05T18:50:05.650Z,49.20
2019-05-05T18:52:37.662Z,46.20
2019-05-05T18:55:09.475Z,49.20
2019-05-05T18:57:43.502Z,48.20
2019-05-05T19:00:17.429Z,46.20
2019-05-05T19:03:17.744Z,41.00
2019-05-05T19:05:53.547Z,44.60
2019-05-05T19:08:54.192Z,43.40
2019-05-05T19:11:24.570Z,44.80
2019-05-05T19:13:57.618Z,42.60
2019-05-05T19:16:29.668Z,44.20
2019-05-05T19:19:03.633Z,44.20
2019-05-05T19:21:59.073Z,41.00
2019-05-05T19:24:35.399Z,44.20
2019-05-05T19:27:07.478Z,45.20
2019-05-05T19:29:44.171Z,43.00
2019-05-05T19:32:20.910Z,44.20
2019-05-05T19:35:07.149Z,44.20
2019-05-05T19:37:45.436Z,47.40
2019-05-05T19:40:17.959Z,44.40
2019-05-05T19:42:53.853Z,45.60
2019-05-05T19:45:38.533Z,47.60
2019-05-05T19:48:10.400Z,44.60
2019-05-05T19:50:54.206Z,44.40
2019-05-05T19:53:27.406Z,41.40
2019-05-05T19:55:59.465Z,43.00
2019-05-05T19:58:31.284Z,44.00
2019-05-05T20:01:16.038Z,40.80
2019-05-05T20:03:49.858Z,39.80
2019-05-05T20:06:21.380Z,36.20
2019-05-05T20:08:54.938Z,43.40
2019-05-05T20:11:29.807Z,42.60
2019-05-05T20:14:07.512Z,36.40
2019-05-05T20:16:54.740Z,32.20
2019-05-05T20:19:28.001Z,34.60
2019-05-05T20:22:01.843Z,34.60
2019-05-05T20:24:35.659Z,30.80
2019-05-05T20:27:07.587Z,31.80
2019-05-05T20:29:42.599Z,30.40
2019-05-05T20:32:15.005Z,30.00
2019-05-05T20:35:04.091Z,31.00
2019-05-05T20:37:50.911Z,31.40
2019-05-05T20:40:25.367Z,31.00
2019-05-05T20:42:57.159Z,29.80
2019-05-05T20:45:30.560Z,28.60
2019-05-05T20:48:26.128Z,29.40
2019-05-05T20:50:58.700Z,28.20
2019-05-05T20:53:31.121Z,32.00
2019-05-05T20:56:04.316Z,30.80
2019-05-05T20:58:36.851Z,31.80
2019-05-05T21:01:09.710Z,31.00
2019-05-05T21:03:42.240Z,32.20
2019-05-05T21:06:15.006Z,31.20
2019-05-05T21:08:46.802Z,34.20
2019-05-05T21:11:37.251Z,33.00
2019-05-05T21:14:09.214Z,36.00
2019-05-05T21:16:54.554Z,33.40
2019-05-05T21:19:25.423Z,28.60
2019-05-05T21:21:59.048Z,32.40
2019-05-05T21:24:30.696Z,31.00
2019-05-05T21:27:06.914Z,32.60
2019-05-05T21:29:42.978Z,25.00
2019-05-05T21:32:20.583Z,30.20
2019-05-05T21:34:57.513Z,29.40
2019-05-05T21:37:34.023Z,29.40
2019-05-05T21:40:13.944Z,26.60
2019-05-05T21:42:50.054Z,29.60
2019-05-05T21:45:22.022Z,23.80
2019-05-05T21:47:54.998Z,24.60
2019-05-05T21:50:35.849Z,23.60
2019-05-05T21:53:22.196Z,25.40
2019-05-05T21:56:26.532Z,22.80
2019-05-05T21:59:14.168Z,27.00
2019-05-05T22:01:49.283Z,31.60
2019-05-05T22:04:23.944Z,31.20
2019-05-05T22:06:56.682Z,30.20
2019-05-05T22:09:30.472Z,35.00
2019-05-05T22:12:04.181Z,35.00
2019-05-05T22:14:44.071Z,35.40
2019-05-05T22:17:15.993Z,35.20
2019-05-05T22:20:07.329Z,33.40
2019-05-05T22:22:44.973Z,32.60
2019-05-05T22:25:30.515Z,32.60
2019-05-05T22:28:06.412Z,31.00
2019-05-05T22:30:50.248Z,30.20
2019-05-05T22:33:24.660Z,30.60
2019-05-05T22:35:56.643Z,32.20
2019-05-05T22:38:28.086Z,29.80
2019-05-05T22:41:04.871Z,25.20
2019-05-05T22:43:37.671Z,27.40
2019-05-05T22:46:16.538Z,25.60
2019-05-05T22:48:54.525Z,23.80
2019-05-05T22:51:31.225Z,24.60
2019-05-05T22:54:05.420Z,23.00
2019-05-05T22:56:37.114Z,23.40
2019-05-05T22:59:13.846Z,30.00
2019-05-05T23:01:48.624Z,31.00
2019-05-05T23:04:43.705Z,28.60
2019-05-05T23:07:25.414Z,30.20
2019-05-05T23:09:59.718Z,25.00
2019-05-05T23:12:35.089Z,17.40
2019-05-05T23:15:09.042Z,21.80
2019-05-05T23:17:49.423Z,21.60
2019-05-05T23:21:15.965Z,18.80
2019-05-05T23:23:59.823Z,22.00
2019-05-05T23:26:35.649Z,21.20
2019-05-05T23:29:10.908Z,18.20
2019-05-05T23:31:44.285Z,16.20
2019-05-05T23:34:16.034Z,16.60
2019-05-05T23:36:47.598Z,19.80
2019-05-05T23:39:20.451Z,15.40
2019-05-05T23:41:54.674Z,18.00
2019-05-05T23:44:31.570Z,21.80
2019-05-05T23:47:04.554Z,19.00
2019-05-05T23:49:36.091Z,21.60
2019-05-05T23:52:07.886Z,19.80
2019-05-05T23:54:44.697Z,28.20
2019-05-05T23:57:19.950Z,20.20
2019-05-05T23:59:56.061Z,27.00
